sensor_id;sensor_type;location;lat;lon;timestamp;temperature;humidity
20759;DHT22;10539;53.686;9.158;2022-10-04T00:01:30;13.90;99.90
20759;DHT22;10539;53.686;9.158;2022-10-04T00:04:08;13.90;99.90
20759;DHT22;10539;53.686;9.158;2022-10-04T00:06:36;13.90;99.90
20759;DHT22;10539;53.686;9.158;2022-10-04T00:09:12;13.90;99.90
20759;DHT22;10539;53.686;9.158;2022-10-04T00:11:44;14.00;99.90
20759;DHT22;10539;53.686;9.158;2022-10-04T00:14:32;14.00;99.90
20759;DHT22;10539;53.686;9.158;2022-10-04T00:17:11;14.00;99.90
20759;DHT22;10539;53.686;9.158;2022-10-04T00:19:43;13.90;99.90
20759;DHT22;10539;53.686;9.158;2022-10-04T00:22:13;13.90;99.90
20759;DHT22;10539;53.686;9.158;2022-10-04T00:27:34;13.90;99.90
20759;DHT22;10539;53.686;9.158;2022-10-04T00:40:24;13.90;99.90
20759;DHT22;10539;53.686;9.158;2022-10-04T00:43:00;13.90;99.90
20759;DHT22;10539;53.686;9.158;2022-10-04T00:45:31;13.90;99.90
20759;DHT22;10539;53.686;9.158;2022-10-04T00:50:37;13.90;99.90
20759;DHT22;10539;53.686;9.158;2022-10-04T00:56:00;14.00;99.90
20759;DHT22;10539;53.686;9.158;2022-10-04T00:58:39;14.00;99.90
20759;DHT22;10539;53.686;9.158;2022-10-04T01:01:09;14.00;99.90
20759;DHT22;10539;53.686;9.158;2022-10-04T01:03:38;14.00;99.90
20759;DHT22;10539;53.686;9.158;2022-10-04T01:06:05;14.00;99.90
20759;DHT22;10539;53.686;9.158;2022-10-04T01:08:43;14.00;99.90
20759;DHT22;10539;53.686;9.158;2022-10-04T01:11:23;14.00;99.90
20759;DHT22;10539;53.686;9.158;2022-10-04T01:14:19;13.90;99.90
20759;DHT22;10539;53.686;9.158;2022-10-04T01:16:46;13.90;99.90
20759;DHT22;10539;53.686;9.158;2022-10-04T01:22:11;13.90;99.90
20759;DHT22;10539;53.686;9.158;2022-10-04T01:24:40;14.00;99.90
20759;DHT22;10539;53.686;9.158;2022-10-04T01:27:33;13.90;99.90
20759;DHT22;10539;53.686;9.158;2022-10-04T01:30:00;14.00;99.90
20759;DHT22;10539;53.686;9.158;2022-10-04T01:32:26;13.90;99.90
20759;DHT22;10539;53.686;9.158;2022-10-04T01:34:52;13.90;99.90
20759;DHT22;10539;53.686;9.158;2022-10-04T01:37:18;13.90;99.90
20759;DHT22;10539;53.686;9.158;2022-10-04T01:39:43;13.90;99.90
20759;DHT22;10539;53.686;9.158;2022-10-04T01:42:18;13.90;99.90
20759;DHT22;10539;53.686;9.158;2022-10-04T01:44:53;13.90;99.90
20759;DHT22;10539;53.686;9.158;2022-10-04T01:47:30;13.90;99.90
20759;DHT22;10539;53.686;9.158;2022-10-04T01:50:02;13.90;99.90
20759;DHT22;10539;53.686;9.158;2022-10-04T01:52:40;14.00;99.90
20759;DHT22;10539;53.686;9.158;2022-10-04T01:55:14;14.00;99.90
20759;DHT22;10539;53.686;9.158;2022-10-04T01:57:49;13.90;99.90
20759;DHT22;10539;53.686;9.158;2022-10-04T02:00:19;13.90;99.90
20759;DHT22;10539;53.686;9.158;2022-10-04T02:03:16;13.90;99.90
20759;DHT22;10539;53.686;9.158;2022-10-04T02:05:51;13.90;99.90
20759;DHT22;10539;53.686;9.158;2022-10-04T02:08:24;13.90;99.90
20759;DHT22;10539;53.686;9.158;2022-10-04T02:10:51;13.90;99.90
20759;DHT22;10539;53.686;9.158;2022-10-04T02:13:20;13.90;99.90
20759;DHT22;10539;53.686;9.158;2022-10-04T02:15:47;13.90;99.90
20759;DHT22;10539;53.686;9.158;2022-10-04T02:18:17;13.90;99.90
20759;DHT22;10539;53.686;9.158;2022-10-04T02:20:44;13.90;99.90
20759;DHT22;10539;53.686;9.158;2022-10-04T02:23:11;13.90;99.90
20759;DHT22;10539;53.686;9.158;2022-10-04T02:25:38;13.90;99.90
20759;DHT22;10539;53.686;9.158;2022-10-04T02:28:07;13.90;99.90
20759;DHT22;10539;53.686;9.158;2022-10-04T02:30:38;13.90;99.90
20759;DHT22;10539;53.686;9.158;2022-10-04T02:33:04;13.90;99.90
20759;DHT22;10539;53.686;9.158;2022-10-04T02:35:45;13.90;99.90
20759;DHT22;10539;53.686;9.158;2022-10-04T02:38:32;13.90;99.90
20759;DHT22;10539;53.686;9.158;2022-10-04T02:41:18;13.90;99.90
20759;DHT22;10539;53.686;9.158;2022-10-04T02:44:10;13.90;99.90
20759;DHT22;10539;53.686;9.158;2022-10-04T02:47:03;13.80;99.90
20759;DHT22;10539;53.686;9.158;2022-10-04T02:49:37;13.80;99.90
20759;DHT22;10539;53.686;9.158;2022-10-04T02:52:11;13.70;99.90
20759;DHT22;10539;53.686;9.158;2022-10-04T02:55:01;13.70;99.90
20759;DHT22;10539;53.686;9.158;2022-10-04T02:57:31;13.70;99.90
20759;DHT22;10539;53.686;9.158;2022-10-04T03:00:22;13.70;99.90
20759;DHT22;10539;53.686;9.158;2022-10-04T03:05:33;13.70;99.90
20759;DHT22;10539;53.686;9.158;2022-10-04T03:07:59;13.70;99.90
20759;DHT22;10539;53.686;9.158;2022-10-04T03:10:26;13.60;99.90
20759;DHT22;10539;53.686;9.158;2022-10-04T03:12:52;13.60;99.90
20759;DHT22;10539;53.686;9.158;2022-10-04T03:15:18;13.50;99.90
20759;DHT22;10539;53.686;9.158;2022-10-04T03:17:45;13.50;99.90
20759;DHT22;10539;53.686;9.158;2022-10-04T03:20:12;13.50;99.90
20759;DHT22;10539;53.686;9.158;2022-10-04T03:22:43;13.40;99.90
20759;DHT22;10539;53.686;9.158;2022-10-04T03:25:25;13.40;99.90
20759;DHT22;10539;53.686;9.158;2022-10-04T03:27:52;13.40;99.90
20759;DHT22;10539;53.686;9.158;2022-10-04T03:30:18;13.40;99.90
20759;DHT22;10539;53.686;9.158;2022-10-04T03:32:47;13.40;99.90
20759;DHT22;10539;53.686;9.158;2022-10-04T03:35:33;13.40;99.90
20759;DHT22;10539;53.686;9.158;2022-10-04T03:38:00;13.40;99.90
20759;DHT22;10539;53.686;9.158;2022-10-04T03:40:31;13.30;99.90
20759;DHT22;10539;53.686;9.158;2022-10-04T03:42:59;13.40;99.90
20759;DHT22;10539;53.686;9.158;2022-10-04T03:45:26;13.40;99.90
20759;DHT22;10539;53.686;9.158;2022-10-04T03:47:57;13.40;99.90
20759;DHT22;10539;53.686;9.158;2022-10-04T03:50:28;13.40;99.90
20759;DHT22;10539;53.686;9.158;2022-10-04T03:52:56;13.40;99.90
20759;DHT22;10539;53.686;9.158;2022-10-04T03:55:32;13.30;99.90
20759;DHT22;10539;53.686;9.158;2022-10-04T03:57:58;13.30;99.90
20759;DHT22;10539;53.686;9.158;2022-10-04T04:00:25;13.30;99.90
20759;DHT22;10539;53.686;9.158;2022-10-04T04:02:51;13.30;99.90
20759;DHT22;10539;53.686;9.158;2022-10-04T04:05:42;13.30;99.90
20759;DHT22;10539;53.686;9.158;2022-10-04T04:08:37;13.30;99.90
20759;DHT22;10539;53.686;9.158;2022-10-04T04:11:06;13.20;99.90
20759;DHT22;10539;53.686;9.158;2022-10-04T04:13:48;13.20;99.90
20759;DHT22;10539;53.686;9.158;2022-10-04T04:16:15;13.20;99.90
20759;DHT22;10539;53.686;9.158;2022-10-04T04:18:44;13.20;99.90
20759;DHT22;10539;53.686;9.158;2022-10-04T04:21:15;13.20;99.90
20759;DHT22;10539;53.686;9.158;2022-10-04T04:23:45;13.30;99.90
20759;DHT22;10539;53.686;9.158;2022-10-04T04:28:57;13.30;99.90
20759;DHT22;10539;53.686;9.158;2022-10-04T04:31:39;13.30;99.90
20759;DHT22;10539;53.686;9.158;2022-10-04T04:34:23;13.40;99.90
20759;DHT22;10539;53.686;9.158;2022-10-04T04:36:49;13.40;99.90
20759;DHT22;10539;53.686;9.158;2022-10-04T04:39:22;13.40;99.90
20759;DHT22;10539;53.686;9.158;2022-10-04T04:44:49;13.40;99.90
20759;DHT22;10539;53.686;9.158;2022-10-04T04:49:50;13.30;99.90
20759;DHT22;10539;53.686;9.158;2022-10-04T04:52:20;13.30;99.90
20759;DHT22;10539;53.686;9.158;2022-10-04T04:54:46;13.30;99.90
20759;DHT22;10539;53.686;9.158;2022-10-04T04:57:16;13.30;99.90
20759;DHT22;10539;53.686;9.158;2022-10-04T04:59:47;13.20;99.90
20759;DHT22;10539;53.686;9.158;2022-10-04T05:05:23;13.20;99.90
20759;DHT22;10539;53.686;9.158;2022-10-04T05:13:26;13.10;99.90
20759;DHT22;10539;53.686;9.158;2022-10-04T05:15:57;13.10;99.90
20759;DHT22;10539;53.686;9.158;2022-10-04T05:18:29;13.10;99.90
20759;DHT22;10539;53.686;9.158;2022-10-04T05:21:07;13.10;99.90
20759;DHT22;10539;53.686;9.158;2022-10-04T05:23:36;13.10;99.90
20759;DHT22;10539;53.686;9.158;2022-10-04T05:26:03;13.10;99.90
20759;DHT22;10539;53.686;9.158;2022-10-04T05:28:32;13.10;99.90
20759;DHT22;10539;53.686;9.158;2022-10-04T05:33:48;13.10;99.90
20759;DHT22;10539;53.686;9.158;2022-10-04T05:39:10;13.10;99.90
20759;DHT22;10539;53.686;9.158;2022-10-04T05:41:53;13.10;99.90
20759;DHT22;10539;53.686;9.158;2022-10-04T05:44:30;13.00;99.90
20759;DHT22;10539;53.686;9.158;2022-10-04T05:46:58;13.00;99.90
20759;DHT22;10539;53.686;9.158;2022-10-04T05:49:26;13.00;99.90
20759;DHT22;10539;53.686;9.158;2022-10-04T05:51:55;13.00;99.90
20759;DHT22;10539;53.686;9.158;2022-10-04T05:54:27;13.00;99.90
20759;DHT22;10539;53.686;9.158;2022-10-04T05:59:43;13.00;99.90
20759;DHT22;10539;53.686;9.158;2022-10-04T06:05:08;13.00;99.90
20759;DHT22;10539;53.686;9.158;2022-10-04T06:10:35;13.30;99.90
20759;DHT22;10539;53.686;9.158;2022-10-04T06:17:06;13.80;99.90
20759;DHT22;10539;53.686;9.158;2022-10-04T06:24:35;14.30;99.90
20759;DHT22;10539;53.686;9.158;2022-10-04T06:29:57;14.40;99.90
20759;DHT22;10539;53.686;9.158;2022-10-04T06:32:38;14.50;99.90
20759;DHT22;10539;53.686;9.158;2022-10-04T06:37:58;14.70;99.90
20759;DHT22;10539;53.686;9.158;2022-10-04T06:40:44;14.80;99.90
20759;DHT22;10539;53.686;9.158;2022-10-04T06:46:16;15.00;99.90
20759;DHT22;10539;53.686;9.158;2022-10-04T06:59:41;15.30;99.90
20759;DHT22;10539;53.686;9.158;2022-10-04T07:02:34;15.40;99.90
20759;DHT22;10539;53.686;9.158;2022-10-04T07:05:01;15.60;99.90
20759;DHT22;10539;53.686;9.158;2022-10-04T07:07:32;15.70;99.90
20759;DHT22;10539;53.686;9.158;2022-10-04T07:13:13;15.90;99.90
20759;DHT22;10539;53.686;9.158;2022-10-04T07:21:15;16.10;99.90
20759;DHT22;10539;53.686;9.158;2022-10-04T07:23:55;16.10;99.90
20759;DHT22;10539;53.686;9.158;2022-10-04T07:26:28;16.10;99.90
20759;DHT22;10539;53.686;9.158;2022-10-04T07:29:04;16.10;99.90
20759;DHT22;10539;53.686;9.158;2022-10-04T07:32:19;16.20;99.90
20759;DHT22;10539;53.686;9.158;2022-10-04T07:34:53;16.20;99.90
20759;DHT22;10539;53.686;9.158;2022-10-04T07:37:25;16.20;99.90
20759;DHT22;10539;53.686;9.158;2022-10-04T07:40:14;16.20;99.90
20759;DHT22;10539;53.686;9.158;2022-10-04T07:45:20;16.20;99.90
20759;DHT22;10539;53.686;9.158;2022-10-04T07:47:46;16.20;99.90
20759;DHT22;10539;53.686;9.158;2022-10-04T07:53:00;16.20;99.90
20759;DHT22;10539;53.686;9.158;2022-10-04T07:56:05;16.10;99.90
20759;DHT22;10539;53.686;9.158;2022-10-04T08:01:20;16.10;99.90
20759;DHT22;10539;53.686;9.158;2022-10-04T08:07:09;16.10;99.90
20759;DHT22;10539;53.686;9.158;2022-10-04T08:15:40;16.20;99.90
20759;DHT22;10539;53.686;9.158;2022-10-04T08:20:59;16.20;99.90
20759;DHT22;10539;53.686;9.158;2022-10-04T08:24:00;16.10;99.90
20759;DHT22;10539;53.686;9.158;2022-10-04T08:26:55;16.10;99.90
20759;DHT22;10539;53.686;9.158;2022-10-04T08:32:50;16.10;99.90
20759;DHT22;10539;53.686;9.158;2022-10-04T08:38:45;16.10;99.90
20759;DHT22;10539;53.686;9.158;2022-10-04T08:44:31;16.10;99.90
20759;DHT22;10539;53.686;9.158;2022-10-04T08:53:14;16.10;99.90
20759;DHT22;10539;53.686;9.158;2022-10-04T08:55:54;16.20;99.90
20759;DHT22;10539;53.686;9.158;2022-10-04T08:58:49;16.30;99.90
20759;DHT22;10539;53.686;9.158;2022-10-04T09:04:40;16.40;99.90
20759;DHT22;10539;53.686;9.158;2022-10-04T09:08:32;16.40;99.90
20759;DHT22;10539;53.686;9.158;2022-10-04T09:10:27;16.50;99.90
20759;DHT22;10539;53.686;9.158;2022-10-04T09:15:50;16.60;99.90
20759;DHT22;10539;53.686;9.158;2022-10-04T09:21:32;16.60;99.90
20759;DHT22;10539;53.686;9.158;2022-10-04T09:29:53;16.60;99.90
20759;DHT22;10539;53.686;9.158;2022-10-04T09:50:01;16.60;99.90
20759;DHT22;10539;53.686;9.158;2022-10-04T09:52:56;16.80;99.90
20759;DHT22;10539;53.686;9.158;2022-10-04T10:01:10;17.40;99.90
20759;DHT22;10539;53.686;9.158;2022-10-04T10:03:55;17.40;99.90
20759;DHT22;10539;53.686;9.158;2022-10-04T10:06:31;17.50;99.90
20759;DHT22;10539;53.686;9.158;2022-10-04T10:15:45;17.70;99.90
20759;DHT22;10539;53.686;9.158;2022-10-04T10:21:18;17.80;99.90
20759;DHT22;10539;53.686;9.158;2022-10-04T10:40:22;18.30;99.90
20759;DHT22;10539;53.686;9.158;2022-10-04T10:46:01;18.30;99.90
20759;DHT22;10539;53.686;9.158;2022-10-04T10:52:33;18.20;99.90
20759;DHT22;10539;53.686;9.158;2022-10-04T10:55:09;18.30;99.90
20759;DHT22;10539;53.686;9.158;2022-10-04T10:58:10;18.40;99.90
20759;DHT22;10539;53.686;9.158;2022-10-04T11:00:58;18.50;99.90
20759;DHT22;10539;53.686;9.158;2022-10-04T11:09:29;18.70;99.90
20759;DHT22;10539;53.686;9.158;2022-10-04T11:12:10;18.60;99.90
20759;DHT22;10539;53.686;9.158;2022-10-04T11:37:57;18.40;99.90
20759;DHT22;10539;53.686;9.158;2022-10-04T11:40:43;18.50;99.90
20759;DHT22;10539;53.686;9.158;2022-10-04T11:49:03;18.70;99.90
20759;DHT22;10539;53.686;9.158;2022-10-04T11:58:04;18.60;99.90
20759;DHT22;10539;53.686;9.158;2022-10-04T12:03:49;18.60;99.90
20759;DHT22;10539;53.686;9.158;2022-10-04T12:23:41;18.80;99.90
20759;DHT22;10539;53.686;9.158;2022-10-04T12:50:30;19.00;99.90
20759;DHT22;10539;53.686;9.158;2022-10-04T12:59:01;19.00;99.90
20759;DHT22;10539;53.686;9.158;2022-10-04T13:01:51;19.00;99.90
20759;DHT22;10539;53.686;9.158;2022-10-04T13:09:49;19.00;99.90
20759;DHT22;10539;53.686;9.158;2022-10-04T13:21:59;18.90;99.90
20759;DHT22;10539;53.686;9.158;2022-10-04T13:30:35;18.90;99.90
20759;DHT22;10539;53.686;9.158;2022-10-04T13:35:48;18.90;99.90
20759;DHT22;10539;53.686;9.158;2022-10-04T13:38:34;18.90;99.90
20759;DHT22;10539;53.686;9.158;2022-10-04T13:44:11;18.90;99.90
20759;DHT22;10539;53.686;9.158;2022-10-04T13:52:41;18.90;99.90
20759;DHT22;10539;53.686;9.158;2022-10-04T13:56:06;18.90;99.90
20759;DHT22;10539;53.686;9.158;2022-10-04T13:59:36;18.90;99.90
20759;DHT22;10539;53.686;9.158;2022-10-04T14:02:39;18.90;99.90
20759;DHT22;10539;53.686;9.158;2022-10-04T14:05:25;18.90;99.90
20759;DHT22;10539;53.686;9.158;2022-10-04T14:11:33;18.90;99.90
20759;DHT22;10539;53.686;9.158;2022-10-04T14:16:55;18.90;99.90
20759;DHT22;10539;53.686;9.158;2022-10-04T14:39:40;18.80;99.90
20759;DHT22;10539;53.686;9.158;2022-10-04T14:46:00;18.80;99.90
20759;DHT22;10539;53.686;9.158;2022-10-04T15:02:32;18.80;99.90
20759;DHT22;10539;53.686;9.158;2022-10-04T15:05:29;18.80;99.90
20759;DHT22;10539;53.686;9.158;2022-10-04T15:10:56;18.90;99.90
20759;DHT22;10539;53.686;9.158;2022-10-04T15:13:47;18.90;99.90
20759;DHT22;10539;53.686;9.158;2022-10-04T15:16:32;18.90;99.90
20759;DHT22;10539;53.686;9.158;2022-10-04T15:21:50;18.90;99.90
20759;DHT22;10539;53.686;9.158;2022-10-04T15:29:27;18.80;99.90
20759;DHT22;10539;53.686;9.158;2022-10-04T15:32:18;18.80;99.90
20759;DHT22;10539;53.686;9.158;2022-10-04T15:34:56;18.80;99.90
20759;DHT22;10539;53.686;9.158;2022-10-04T15:37:48;18.70;99.90
20759;DHT22;10539;53.686;9.158;2022-10-04T15:43:22;18.60;99.90
20759;DHT22;10539;53.686;9.158;2022-10-04T15:46:22;18.60;99.90
20759;DHT22;10539;53.686;9.158;2022-10-04T15:48:57;18.60;99.90
20759;DHT22;10539;53.686;9.158;2022-10-04T15:57:36;18.40;99.90
20759;DHT22;10539;53.686;9.158;2022-10-04T16:31:57;17.90;99.90
20759;DHT22;10539;53.686;9.158;2022-10-04T16:37:17;17.80;99.90
20759;DHT22;10539;53.686;9.158;2022-10-04T16:43:10;17.70;99.90
20759;DHT22;10539;53.686;9.158;2022-10-04T16:46:03;17.70;99.90
20759;DHT22;10539;53.686;9.158;2022-10-04T16:53:41;17.50;99.90
20759;DHT22;10539;53.686;9.158;2022-10-04T17:02:25;17.40;99.90
20759;DHT22;10539;53.686;9.158;2022-10-04T17:05:19;17.40;99.90
20759;DHT22;10539;53.686;9.158;2022-10-04T17:13:29;17.30;99.90
20759;DHT22;10539;53.686;9.158;2022-10-04T17:16:16;17.20;99.90
20759;DHT22;10539;53.686;9.158;2022-10-04T17:18:50;17.20;99.90
20759;DHT22;10539;53.686;9.158;2022-10-04T17:26:44;17.10;99.90
20759;DHT22;10539;53.686;9.158;2022-10-04T17:32:13;17.00;99.90
20759;DHT22;10539;53.686;9.158;2022-10-04T17:34:56;17.00;99.90
20759;DHT22;10539;53.686;9.158;2022-10-04T17:38:15;16.90;99.90
20759;DHT22;10539;53.686;9.158;2022-10-04T17:46:10;16.90;99.90
20759;DHT22;10539;53.686;9.158;2022-10-04T17:49:21;16.80;99.90
20759;DHT22;10539;53.686;9.158;2022-10-04T17:52:19;16.80;99.90
20759;DHT22;10539;53.686;9.158;2022-10-04T17:55:26;16.80;99.90
20759;DHT22;10539;53.686;9.158;2022-10-04T17:58:01;16.70;99.90
20759;DHT22;10539;53.686;9.158;2022-10-04T18:00:48;16.70;99.90
20759;DHT22;10539;53.686;9.158;2022-10-04T18:03:19;16.70;99.90
20759;DHT22;10539;53.686;9.158;2022-10-04T18:06:00;16.70;99.90
20759;DHT22;10539;53.686;9.158;2022-10-04T18:08:44;16.60;99.90
20759;DHT22;10539;53.686;9.158;2022-10-04T18:17:12;16.50;99.90
20759;DHT22;10539;53.686;9.158;2022-10-04T18:22:20;16.40;99.90
20759;DHT22;10539;53.686;9.158;2022-10-04T18:24:48;16.40;99.90
20759;DHT22;10539;53.686;9.158;2022-10-04T18:27:28;16.30;99.90
20759;DHT22;10539;53.686;9.158;2022-10-04T18:30:11;16.30;99.90
20759;DHT22;10539;53.686;9.158;2022-10-04T18:32:42;16.30;99.90
20759;DHT22;10539;53.686;9.158;2022-10-04T18:35:25;16.30;99.90
20759;DHT22;10539;53.686;9.158;2022-10-04T18:38:21;16.30;99.90
20759;DHT22;10539;53.686;9.158;2022-10-04T18:41:18;16.30;99.90
20759;DHT22;10539;53.686;9.158;2022-10-04T18:44:11;16.30;99.90
20759;DHT22;10539;53.686;9.158;2022-10-04T18:46:39;16.20;99.90
20759;DHT22;10539;53.686;9.158;2022-10-04T18:49:18;16.20;99.90
20759;DHT22;10539;53.686;9.158;2022-10-04T19:00:11;16.20;99.90
20759;DHT22;10539;53.686;9.158;2022-10-04T19:05:48;16.20;99.90
20759;DHT22;10539;53.686;9.158;2022-10-04T19:11:19;16.10;99.90
20759;DHT22;10539;53.686;9.158;2022-10-04T19:14:03;16.10;99.90
20759;DHT22;10539;53.686;9.158;2022-10-04T19:16:43;16.10;99.90
20759;DHT22;10539;53.686;9.158;2022-10-04T19:19:35;16.00;99.90
20759;DHT22;10539;53.686;9.158;2022-10-04T19:22:45;16.00;99.90
20759;DHT22;10539;53.686;9.158;2022-10-04T19:28:07;15.90;99.90
20759;DHT22;10539;53.686;9.158;2022-10-04T19:33:55;15.90;99.90
20759;DHT22;10539;53.686;9.158;2022-10-04T19:36:37;15.90;99.90
20759;DHT22;10539;53.686;9.158;2022-10-04T19:42:08;15.90;99.90
20759;DHT22;10539;53.686;9.158;2022-10-04T19:47:45;15.90;99.90
20759;DHT22;10539;53.686;9.158;2022-10-04T19:50:34;15.80;99.90
20759;DHT22;10539;53.686;9.158;2022-10-04T19:55:58;15.80;99.90
20759;DHT22;10539;53.686;9.158;2022-10-04T19:58:38;15.80;99.90
20759;DHT22;10539;53.686;9.158;2022-10-04T20:03:38;15.90;99.90
20759;DHT22;10539;53.686;9.158;2022-10-04T20:06:03;15.90;99.90
20759;DHT22;10539;53.686;9.158;2022-10-04T20:08:50;15.90;99.90
20759;DHT22;10539;53.686;9.158;2022-10-04T20:11:24;16.00;99.90
20759;DHT22;10539;53.686;9.158;2022-10-04T20:27:04;16.00;99.90
20759;DHT22;10539;53.686;9.158;2022-10-04T20:32:05;16.00;99.90
20759;DHT22;10539;53.686;9.158;2022-10-04T20:34:33;15.90;99.90
20759;DHT22;10539;53.686;9.158;2022-10-04T20:37:01;15.90;99.90
20759;DHT22;10539;53.686;9.158;2022-10-04T20:45:00;15.90;99.90
20759;DHT22;10539;53.686;9.158;2022-10-04T20:47:48;15.90;99.90
20759;DHT22;10539;53.686;9.158;2022-10-04T20:50:38;15.90;99.90
20759;DHT22;10539;53.686;9.158;2022-10-04T20:53:28;15.90;99.90
20759;DHT22;10539;53.686;9.158;2022-10-04T20:56:08;15.90;99.90
20759;DHT22;10539;53.686;9.158;2022-10-04T20:58:36;15.90;99.90
20759;DHT22;10539;53.686;9.158;2022-10-04T21:01:05;15.90;99.90
20759;DHT22;10539;53.686;9.158;2022-10-04T21:03:43;15.90;99.90
20759;DHT22;10539;53.686;9.158;2022-10-04T21:06:11;16.00;99.90
20759;DHT22;10539;53.686;9.158;2022-10-04T21:08:38;16.00;99.90
20759;DHT22;10539;53.686;9.158;2022-10-04T21:11:15;16.00;99.90
20759;DHT22;10539;53.686;9.158;2022-10-04T21:13:54;16.00;99.90
20759;DHT22;10539;53.686;9.158;2022-10-04T21:16:46;16.00;99.90
20759;DHT22;10539;53.686;9.158;2022-10-04T21:22:31;16.00;99.90
20759;DHT22;10539;53.686;9.158;2022-10-04T21:24:59;16.00;99.90
20759;DHT22;10539;53.686;9.158;2022-10-04T21:27:34;16.00;99.90
20759;DHT22;10539;53.686;9.158;2022-10-04T21:30:02;16.10;99.90
20759;DHT22;10539;53.686;9.158;2022-10-04T21:32:33;16.10;99.90
20759;DHT22;10539;53.686;9.158;2022-10-04T21:35:00;16.10;99.90
20759;DHT22;10539;53.686;9.158;2022-10-04T21:37:26;16.10;99.90
20759;DHT22;10539;53.686;9.158;2022-10-04T21:39:51;16.10;99.90
20759;DHT22;10539;53.686;9.158;2022-10-04T21:42:17;16.10;99.90
20759;DHT22;10539;53.686;9.158;2022-10-04T21:44:43;16.10;99.90
20759;DHT22;10539;53.686;9.158;2022-10-04T21:47:09;16.10;99.90
20759;DHT22;10539;53.686;9.158;2022-10-04T21:49:35;16.10;99.90
20759;DHT22;10539;53.686;9.158;2022-10-04T21:52:00;16.10;99.90
20759;DHT22;10539;53.686;9.158;2022-10-04T21:54:26;16.10;99.90
20759;DHT22;10539;53.686;9.158;2022-10-04T21:56:52;16.00;99.90
20759;DHT22;10539;53.686;9.158;2022-10-04T21:59:19;16.10;99.90
20759;DHT22;10539;53.686;9.158;2022-10-04T22:01:44;16.00;99.90
20759;DHT22;10539;53.686;9.158;2022-10-04T22:04:10;16.00;99.90
20759;DHT22;10539;53.686;9.158;2022-10-04T22:06:37;16.00;99.90
20759;DHT22;10539;53.686;9.158;2022-10-04T22:09:03;16.00;99.90
20759;DHT22;10539;53.686;9.158;2022-10-04T22:11:30;16.00;99.90
20759;DHT22;10539;53.686;9.158;2022-10-04T22:13:55;16.00;99.90
20759;DHT22;10539;53.686;9.158;2022-10-04T22:16:21;16.00;99.90
20759;DHT22;10539;53.686;9.158;2022-10-04T22:18:47;15.90;99.90
20759;DHT22;10539;53.686;9.158;2022-10-04T22:21:13;15.90;99.90
20759;DHT22;10539;53.686;9.158;2022-10-04T22:23:41;15.90;99.90
20759;DHT22;10539;53.686;9.158;2022-10-04T22:26:15;15.90;99.90
20759;DHT22;10539;53.686;9.158;2022-10-04T22:28:53;15.80;99.90
20759;DHT22;10539;53.686;9.158;2022-10-04T22:31:21;15.80;99.90
20759;DHT22;10539;53.686;9.158;2022-10-04T22:33:48;15.80;99.90
20759;DHT22;10539;53.686;9.158;2022-10-04T22:36:26;15.70;99.90
20759;DHT22;10539;53.686;9.158;2022-10-04T22:39:09;15.70;99.90
20759;DHT22;10539;53.686;9.158;2022-10-04T22:41:39;15.70;99.90
20759;DHT22;10539;53.686;9.158;2022-10-04T22:44:13;15.60;99.90
20759;DHT22;10539;53.686;9.158;2022-10-04T22:46:42;15.60;99.90
20759;DHT22;10539;53.686;9.158;2022-10-04T22:49:11;15.60;99.90
20759;DHT22;10539;53.686;9.158;2022-10-04T22:51:39;15.60;99.90
20759;DHT22;10539;53.686;9.158;2022-10-04T22:54:16;15.60;99.90
20759;DHT22;10539;53.686;9.158;2022-10-04T22:56:42;15.60;99.90
20759;DHT22;10539;53.686;9.158;2022-10-04T22:59:13;15.60;99.90
20759;DHT22;10539;53.686;9.158;2022-10-04T23:01:39;15.60;99.90
20759;DHT22;10539;53.686;9.158;2022-10-04T23:04:22;15.60;99.90
20759;DHT22;10539;53.686;9.158;2022-10-04T23:06:49;15.60;99.90
20759;DHT22;10539;53.686;9.158;2022-10-04T23:09:15;15.60;99.90
20759;DHT22;10539;53.686;9.158;2022-10-04T23:11:41;15.50;99.90
20759;DHT22;10539;53.686;9.158;2022-10-04T23:14:07;15.50;99.90
20759;DHT22;10539;53.686;9.158;2022-10-04T23:16:33;15.60;99.90
20759;DHT22;10539;53.686;9.158;2022-10-04T23:19:11;15.50;99.90
20759;DHT22;10539;53.686;9.158;2022-10-04T23:21:38;15.50;99.90
20759;DHT22;10539;53.686;9.158;2022-10-04T23:24:15;15.50;99.90
20759;DHT22;10539;53.686;9.158;2022-10-04T23:26:44;15.50;99.90
20759;DHT22;10539;53.686;9.158;2022-10-04T23:29:33;15.50;99.90
20759;DHT22;10539;53.686;9.158;2022-10-04T23:32:07;15.50;99.90
20759;DHT22;10539;53.686;9.158;2022-10-04T23:34:37;15.50;99.90
20759;DHT22;10539;53.686;9.158;2022-10-04T23:37:31;15.60;99.90
20759;DHT22;10539;53.686;9.158;2022-10-04T23:39:57;15.60;99.90
20759;DHT22;10539;53.686;9.158;2022-10-04T23:42:28;15.60;99.90
20759;DHT22;10539;53.686;9.158;2022-10-04T23:45:00;15.70;99.90
20759;DHT22;10539;53.686;9.158;2022-10-04T23:47:32;15.70;99.90
20759;DHT22;10539;53.686;9.158;2022-10-04T23:49:59;15.80;99.90
20759;DHT22;10539;53.686;9.158;2022-10-04T23:52:33;15.80;99.90
20759;DHT22;10539;53.686;9.158;2022-10-04T23:55:00;15.80;99.90
20759;DHT22;10539;53.686;9.158;2022-10-04T23:57:28;15.90;99.90
20759;DHT22;10539;53.686;9.158;2022-10-04T23:59:57;15.90;99.90
